Time;durP1;ratioP1;P1;durP2;ratioP2;P2;SDS_P1;SDS_P2;PMS_P1;PMS_P2;Temp;Humidity;BMP_temperature;BMP_pressure;BME280_temperature;BME280_humidity;BME280_pressure;Samples;Min_cycle;Max_cycle;Signal;HPM_P1;HPM_P2
2023/10/08 00:10:52;;;;;;;5.25;2.50;;;;;;;;;;12778115;23;20384;-77
2023/10/08 00:17:13;;;;;;;5.13;2.45;;;;;;;;;;12767908;23;20025;-77
2023/10/08 00:29:53;;;;;;;2.92;1.50;;;;;;;;;;12800493;23;20053;-77
2023/10/08 00:54:20;;;;;;;4.72;2.15;;;;;;;;;;12804258;23;20257;-78
2023/10/08 01:00:51;;;;;;;2.13;1.60;;;;;;;;;;12777257;23;20036;-78
2023/10/08 01:13:01;;;;;;;5.27;2.20;;;;;;;;;;12718078;23;20072;-78
2023/10/08 01:18:56;;;;;;;2.75;1.60;;;;;;;;;;12804947;23;20064;-78
2023/10/08 01:25:10;;;;;;;2.53;1.45;;;;;;;;;;12761073;23;20075;-78
2023/10/08 01:30:53;;;;;;;2.40;1.50;;;;;;;;;;12762474;23;20072;-79
2023/10/08 01:36:18;;;;;;;3.22;1.75;;;;;;;;;;12793932;23;20056;-78
2023/10/08 01:48:15;;;;;;;3.15;1.48;;;;;;;;;;12688831;23;20021;-78
2023/10/08 02:00:24;;;;;;;2.70;1.57;;;;;;;;;;12720074;23;20530;-78
2023/10/08 02:06:35;;;;;;;3.10;1.73;;;;;;;;;;12773522;23;20108;-78
2023/10/08 02:12:08;;;;;;;3.47;1.73;;;;;;;;;;12771862;23;20029;-78
2023/10/08 02:18:30;;;;;;;;;;;;;;;;;;;;;
2023/10/08 02:24:17;;;;;;;;;;;;;;;;;;;;;
2023/10/08 02:29:35;;;;;;;2.90;1.50;;;;;;;;;;12755176;23;20464;-78
2023/10/08 02:35:02;;;;;;;2.88;2.08;;;;;;;;;;12795218;23;20027;-78
2023/10/08 02:41:19;;;;;;;;;;;;;;;;;;;;;
2023/10/08 02:46:33;;;;;;;5.35;1.90;;;;;;;;;;12830709;23;20029;-78
2023/10/08 02:51:53;;;;;;;5.13;1.92;;;;;;;;;;12790665;23;20060;-78
2023/10/08 03:03:24;;;;;;;2.30;1.50;;;;;;;;;;12783558;23;20412;-78
2023/10/08 03:09:25;;;;;;;2.75;1.67;;;;;;;;;;12823287;23;20023;-78
2023/10/08 03:15:38;;;;;;;4.65;2.13;;;;;;;;;;12789246;23;20489;-78
2023/10/08 03:21:06;;;;;;;3.25;1.67;;;;;;;;;;12776230;23;20059;-78
2023/10/08 03:27:20;;;;;;;2.75;1.70;;;;;;;;;;12794492;23;20029;-78
2023/10/08 03:33:21;;;;;;;2.67;2.03;;;;;;;;;;12622622;23;20036;-78
2023/10/08 03:51:59;;;;;;;2.50;1.63;;;;;;;;;;12623991;23;20533;-78
2023/10/08 03:58:04;;;;;;;4.55;1.95;;;;;;;;;;12667775;23;20033;-78
2023/10/08 07:41:15;;;;;;;4.53;2.60;;;;;;;;;;12974296;22;1439552;-76
2023/10/08 07:46:18;;;;;;;3.97;2.10;;;;;;;;;;12970699;22;20094;-77
2023/10/08 07:51:23;;;;;;;2.22;1.48;;;;;;;;;;12854526;23;20100;-77
2023/10/08 07:56:30;;;;;;;3.53;2.08;;;;;;;;;;12826334;23;20294;-77
2023/10/08 08:01:34;;;;;;;2.92;1.83;;;;;;;;;;12867933;23;20103;-76
2023/10/08 08:06:38;;;;;;;2.85;1.70;;;;;;;;;;12867753;23;20024;-77
2023/10/08 08:11:42;;;;;;;3.30;1.98;;;;;;;;;;12867343;23;20025;-77
2023/10/08 08:16:49;;;;;;;2.83;1.73;;;;;;;;;;12866998;23;20095;-77
2023/10/08 08:21:52;;;;;;;2.97;1.80;;;;;;;;;;12866870;23;20021;-77
2023/10/08 08:27:08;;;;;;;2.13;1.73;;;;;;;;;;12826460;23;20048;-77
2023/10/08 08:32:15;;;;;;;1.88;1.27;;;;;;;;;;12852906;23;20473;-77
2023/10/08 08:37:18;;;;;;;2.63;1.67;;;;;;;;;;12853222;23;20024;-76
2023/10/08 08:42:23;;;;;;;2.80;1.40;;;;;;;;;;12852806;23;20028;-76
2023/10/08 08:47:28;;;;;;;2.87;1.37;;;;;;;;;;12863962;23;20028;-76
2023/10/08 08:52:33;;;;;;;5.88;3.03;;;;;;;;;;12825551;23;20092;-77
2023/10/08 08:57:39;;;;;;;6.38;2.42;;;;;;;;;;12867666;23;20104;-77
2023/10/08 09:02:44;;;;;;;5.57;2.65;;;;;;;;;;12877828;23;20027;-77
2023/10/08 09:07:58;;;;;;;3.22;2.28;;;;;;;;;;12853745;23;20116;-77
2023/10/08 09:13:04;;;;;;;4.65;2.50;;;;;;;;;;12861465;23;20043;-77
2023/10/08 09:18:09;;;;;;;3.67;2.30;;;;;;;;;;12861942;23;20048;-76
2023/10/08 09:23:14;;;;;;;4.93;2.30;;;;;;;;;;12857261;23;20021;-77
2023/10/08 09:28:21;;;;;;;4.18;2.33;;;;;;;;;;12863943;23;20040;-77
2023/10/08 09:33:25;;;;;;;4.72;2.50;;;;;;;;;;12862925;23;20019;-77
2023/10/08 09:38:30;;;;;;;3.38;1.65;;;;;;;;;;12862702;23;20466;-77
2023/10/08 09:43:34;;;;;;;3.55;2.05;;;;;;;;;;12862073;23;20099;-77
2023/10/08 09:48:43;;;;;;;4.03;1.75;;;;;;;;;;12861690;23;20036;-76
2023/10/08 09:53:59;;;;;;;5.20;1.67;;;;;;;;;;12861447;23;20637;-76
2023/10/08 09:59:04;;;;;;;2.53;1.55;;;;;;;;;;12859835;23;20025;-77
2023/10/08 10:04:09;;;;;;;3.45;2.30;;;;;;;;;;12829395;23;20096;-77
2023/10/08 10:09:22;;;;;;;4.10;1.80;;;;;;;;;;12859047;23;20031;-76
2023/10/08 10:14:27;;;;;;;3.22;1.90;;;;;;;;;;12856044;23;20075;-77
2023/10/08 10:19:30;;;;;;;2.95;1.90;;;;;;;;;;12857654;23;20079;-76
2023/10/08 10:24:41;;;;;;;3.03;1.95;;;;;;;;;;12856017;23;20104;-76
2023/10/08 10:29:47;;;;;;;4.32;1.73;;;;;;;;;;12854655;23;20032;-77
2023/10/08 10:34:51;;;;;;;5.03;1.92;;;;;;;;;;12856051;23;20017;-76
2023/10/08 10:39:59;;;;;;;4.15;2.58;;;;;;;;;;12855156;23;20096;-77
2023/10/08 10:45:09;;;;;;;7.57;3.00;;;;;;;;;;12854226;23;20047;-77
2023/10/08 10:50:26;;;;;;;7.05;2.88;;;;;;;;;;12858874;23;20028;-77
2023/10/08 10:55:32;;;;;;;5.10;2.90;;;;;;;;;;12889983;23;20044;-77
2023/10/08 11:00:56;;;;;;;5.93;3.15;;;;;;;;;;12882242;23;20029;-77
2023/10/08 11:06:05;;;;;;;4.30;2.15;;;;;;;;;;12870698;23;20055;-76
2023/10/08 11:11:11;;;;;;;3.58;1.90;;;;;;;;;;12854455;23;20487;-77
2023/10/08 11:16:16;;;;;;;5.93;2.60;;;;;;;;;;12869732;23;20099;-77
2023/10/08 11:21:24;;;;;;;7.75;3.22;;;;;;;;;;12869876;23;20464;-77
2023/10/08 11:26:38;;;;;;;5.10;2.72;;;;;;;;;;12855069;23;20035;-77
2023/10/08 11:31:43;;;;;;;4.07;2.17;;;;;;;;;;12827184;23;20168;-77
2023/10/08 11:36:52;;;;;;;4.22;2.50;;;;;;;;;;12868290;23;20103;-77
2023/10/08 11:42:03;;;;;;;2.55;1.90;;;;;;;;;;12826162;23;20032;-76
2023/10/08 11:47:13;;;;;;;4.85;2.60;;;;;;;;;;12865757;23;20060;-77
2023/10/08 11:52:21;;;;;;;5.38;2.88;;;;;;;;;;12826758;23;20025;-77
2023/10/08 11:57:25;;;;;;;6.47;2.75;;;;;;;;;;12853128;23;20028;-77
2023/10/08 12:02:30;;;;;;;3.95;2.20;;;;;;;;;;12863663;23;20028;-77
2023/10/08 12:07:36;;;;;;;6.25;3.15;;;;;;;;;;12853165;23;20032;-77
2023/10/08 12:12:41;;;;;;;4.38;2.50;;;;;;;;;;12863190;23;20027;-77
2023/10/08 12:18:08;;;;;;;3.55;2.08;;;;;;;;;;12852760;23;20047;-77
2023/10/08 12:23:11;;;;;;;;;;;;;;;;;;12861085;23;20029;-77
2023/10/08 12:28:15;;;;;;;3.17;1.83;;;;;;;;;;12852465;23;19970;-76
2023/10/08 12:33:19;;;;;;;4.18;2.25;;;;;;;;;;12859690;23;20107;-77
2023/10/08 12:38:23;;;;;;;3.65;2.10;;;;;;;;;;12859416;23;20024;-77
2023/10/08 12:43:27;;;;;;;6.15;3.15;;;;;;;;;;12860075;23;20047;-77
2023/10/08 12:48:32;;;;;;;9.25;3.28;;;;;;;;;;12869294;23;20044;-77
2023/10/08 12:53:36;;;;;;;3.95;2.40;;;;;;;;;;12863747;23;20092;-77
2023/10/08 12:58:41;;;;;;;5.65;2.75;;;;;;;;;;12863175;23;20107;-77
2023/10/08 13:03:53;;;;;;;7.00;2.90;;;;;;;;;;12862462;23;20025;-76
2023/10/08 13:08:57;;;;;;;6.00;2.53;;;;;;;;;;12861088;23;20064;-77
2023/10/08 13:14:00;;;;;;;6.50;3.15;;;;;;;;;;12856657;23;20021;-77
2023/10/08 13:19:08;;;;;;;5.93;2.90;;;;;;;;;;12855629;23;20066;-77
2023/10/08 13:24:12;;;;;;;5.55;2.95;;;;;;;;;;12859796;23;20135;-77
2023/10/08 13:29:18;;;;;;;7.07;3.20;;;;;;;;;;12859354;23;20078;-77
2023/10/08 13:34:22;;;;;;;3.95;1.90;;;;;;;;;;12855577;23;20024;-77
2023/10/08 13:39:27;;;;;;;3.67;1.90;;;;;;;;;;12858985;23;20338;-77
2023/10/08 13:44:31;;;;;;;4.00;2.28;;;;;;;;;;12863997;23;20372;-88
2023/10/08 13:49:36;;;;;;;3.08;1.83;;;;;;;;;;12854649;22;20028;-88
2023/10/08 13:54:41;;;;;;;2.85;1.48;;;;;;;;;;12825267;23;20013;-88
2023/10/08 13:59:46;;;;;;;;;;;;;;;;;;12826647;23;20028;-88
2023/10/08 14:04:53;;;;;;;2.05;1.23;;;;;;;;;;12853136;23;19920;-89
2023/10/08 14:09:58;;;;;;;2.65;1.58;;;;;;;;;;12824543;23;20028;-89
2023/10/08 14:15:06;;;;;;;3.37;1.63;;;;;;;;;;12853170;23;20025;-88
2023/10/08 14:20:13;;;;;;;4.00;1.52;;;;;;;;;;12824368;23;20585;-89
2023/10/08 14:25:17;;;;;;;4.68;2.40;;;;;;;;;;12824904;23;20020;-89
2023/10/08 14:30:23;;;;;;;3.63;1.83;;;;;;;;;;12871346;23;20021;-89
2023/10/08 14:46:11;;;;;;;4.18;2.47;;;;;;;;;;12824956;23;20028;-89
2023/10/08 14:51:19;;;;;;;3.63;1.60;;;;;;;;;;12867121;23;20024;-89
2023/10/08 14:56:23;;;;;;;4.68;1.58;;;;;;;;;;12822299;23;20490;-89
2023/10/08 15:01:27;;;;;;;3.45;2.00;;;;;;;;;;12866460;23;20020;-89
2023/10/08 15:06:33;;;;;;;5.57;2.03;;;;;;;;;;12865600;23;20087;-89
2023/10/08 15:11:36;;;;;;;4.53;2.38;;;;;;;;;;12823950;23;20370;-89
2023/10/08 15:16:40;;;;;;;3.50;1.80;;;;;;;;;;12823941;23;20218;-88
2023/10/08 15:21:50;;;;;;;3.53;2.08;;;;;;;;;;12823776;23;20024;-88
2023/10/08 15:26:54;;;;;;;3.33;1.90;;;;;;;;;;12863594;23;20083;-88
2023/10/08 15:31:58;;;;;;;2.50;1.52;;;;;;;;;;12861095;23;20059;-89
2023/10/08 15:37:03;;;;;;;4.07;1.85;;;;;;;;;;12821370;23;20074;-88
2023/10/08 15:42:06;;;;;;;5.30;1.77;;;;;;;;;;12822258;23;20035;-88
2023/10/08 15:47:10;;;;;;;2.20;1.58;;;;;;;;;;12823398;23;20020;-88
2023/10/08 15:52:16;;;;;;;3.20;1.67;;;;;;;;;;12861374;23;20024;-89
2023/10/08 15:57:19;;;;;;;3.13;1.88;;;;;;;;;;12849880;23;20021;-88
2023/10/08 16:02:23;;;;;;;3.22;1.67;;;;;;;;;;12823588;23;20028;-89
2023/10/08 16:07:29;;;;;;;3.95;1.80;;;;;;;;;;12822239;23;20020;-89
2023/10/08 16:12:33;;;;;;;8.90;2.10;;;;;;;;;;12860255;23;20029;-89
2023/10/08 16:17:38;;;;;;;3.08;1.77;;;;;;;;;;12859035;23;20024;-89
2023/10/08 16:22:44;;;;;;;5.90;2.00;;;;;;;;;;12822523;23;20029;-88
2023/10/08 16:27:50;;;;;;;4.85;2.13;;;;;;;;;;12822696;23;20044;-89
2023/10/08 16:32:54;;;;;;;6.07;1.92;;;;;;;;;;12849935;23;20028;-89
2023/10/08 16:38:00;;;;;;;4.55;2.00;;;;;;;;;;12849525;23;20047;-88
2023/10/08 16:43:04;;;;;;;3.25;1.63;;;;;;;;;;12857519;23;20032;-89
2023/10/08 16:48:08;;;;;;;3.97;2.00;;;;;;;;;;12822224;23;20025;-89
2023/10/08 16:53:15;;;;;;;4.65;1.88;;;;;;;;;;12822368;23;20028;-89
2023/10/08 16:58:19;;;;;;;4.45;2.03;;;;;;;;;;12855492;23;20021;-89
2023/10/08 17:03:23;;;;;;;2.40;1.77;;;;;;;;;;12822433;23;20016;-89
2023/10/08 17:08:28;;;;;;;3.80;2.17;;;;;;;;;;12849151;23;20031;-89
2023/10/08 17:13:32;;;;;;;5.03;2.55;;;;;;;;;;12822299;23;20028;-89
2023/10/08 17:18:35;;;;;;;5.45;2.88;;;;;;;;;;12822122;23;20075;-89
2023/10/08 17:23:40;;;;;;;6.38;4.68;;;;;;;;;;12822285;23;20413;-89
2023/10/08 17:28:43;;;;;;;5.03;3.65;;;;;;;;;;12849053;23;20025;-89
2023/10/08 17:33:46;;;;;;;6.50;3.67;;;;;;;;;;12822569;23;20020;-89
2023/10/08 17:38:51;;;;;;;4.18;3.03;;;;;;;;;;12823272;23;20024;-89
2023/10/08 17:43:55;;;;;;;5.80;3.22;;;;;;;;;;12825453;23;20079;-89
2023/10/08 17:48:58;;;;;;;5.40;3.15;;;;;;;;;;12825318;23;20021;-89
2023/10/08 17:54:04;;;;;;;3.70;2.55;;;;;;;;;;12826213;23;20082;-89
2023/10/08 17:59:08;;;;;;;;;;;;;;;;;;12825863;23;20039;-88
2023/10/08 18:04:11;;;;;;;5.97;2.90;;;;;;;;;;12825063;23;19955;-88
2023/10/08 18:09:20;;;;;;;4.90;2.67;;;;;;;;;;12825285;23;20020;-89
2023/10/08 18:14:23;;;;;;;6.18;3.08;;;;;;;;;;12824982;23;20032;-89
2023/10/08 18:19:27;;;;;;;4.90;2.85;;;;;;;;;;12850871;23;20016;-89
2023/10/08 18:24:32;;;;;;;7.25;2.72;;;;;;;;;;12824477;23;20021;-89
2023/10/08 18:29:36;;;;;;;5.07;3.22;;;;;;;;;;12826138;23;20032;-89
2023/10/08 18:34:39;;;;;;;5.25;3.35;;;;;;;;;;12851264;23;20060;-89
2023/10/08 18:39:46;;;;;;;5.18;3.03;;;;;;;;;;12849920;23;20031;-87
2023/10/08 18:44:51;;;;;;;6.18;3.00;;;;;;;;;;12850992;23;20082;-89
2023/10/08 18:49:55;;;;;;;5.13;2.63;;;;;;;;;;12824289;23;20235;-89
2023/10/08 18:55:05;;;;;;;6.45;3.47;;;;;;;;;;12851322;23;20585;-88
2023/10/08 19:00:09;;;;;;;;;;;;;;;;;;12871376;23;20527;-89
2023/10/08 19:05:17;;;;;;;2.88;1.98;;;;;;;;;;12824102;23;19922;-89
2023/10/08 19:10:22;;;;;;;5.38;3.25;;;;;;;;;;12850170;23;20017;-89
2023/10/08 19:15:26;;;;;;;4.47;2.90;;;;;;;;;;12823848;23;20066;-89
2023/10/08 19:20:30;;;;;;;5.25;2.33;;;;;;;;;;12823501;23;20075;-89
2023/10/08 19:25:36;;;;;;;5.57;2.58;;;;;;;;;;12823768;23;20078;-88
2023/10/08 19:30:41;;;;;;;5.25;2.78;;;;;;;;;;12850727;23;20052;-89
2023/10/08 19:35:45;;;;;;;5.90;2.55;;;;;;;;;;12851372;23;20035;-89
2023/10/08 19:40:58;;;;;;;4.65;2.47;;;;;;;;;;12852487;22;20029;-89
2023/10/08 19:46:02;;;;;;;3.72;2.50;;;;;;;;;;12813456;23;20079;-77
2023/10/08 19:51:11;;;;;;;5.30;2.53;;;;;;;;;;12827365;23;20032;-76
2023/10/08 19:56:17;;;;;;;6.40;2.72;;;;;;;;;;12826323;23;20483;-77
2023/10/08 20:01:21;;;;;;;5.57;2.53;;;;;;;;;;12868242;23;20379;-77
2023/10/08 20:06:25;;;;;;;4.93;2.47;;;;;;;;;;12869057;23;20020;-77
2023/10/08 20:11:32;;;;;;;5.00;2.55;;;;;;;;;;12876560;23;20024;-76
2023/10/08 20:16:36;;;;;;;7.00;2.45;;;;;;;;;;12853203;23;20438;-76
2023/10/08 20:21:39;;;;;;;4.25;2.50;;;;;;;;;;12867340;23;20495;-77
2023/10/08 20:26:44;;;;;;;3.63;2.35;;;;;;;;;;12852623;23;20039;-77
2023/10/08 20:31:48;;;;;;;3.45;2.10;;;;;;;;;;12852714;23;20492;-77
2023/10/08 20:36:52;;;;;;;4.53;2.63;;;;;;;;;;12866327;23;20032;-77
2023/10/08 20:41:58;;;;;;;3.47;2.20;;;;;;;;;;12865925;23;20356;-77
2023/10/08 20:47:03;;;;;;;3.28;2.50;;;;;;;;;;12865670;23;20043;-77
2023/10/08 20:52:08;;;;;;;4.40;2.30;;;;;;;;;;12853025;23;20111;-78
2023/10/08 20:57:12;;;;;;;2.67;1.98;;;;;;;;;;12864456;23;20017;-77
2023/10/08 21:02:16;;;;;;;3.47;2.25;;;;;;;;;;12852784;23;20096;-77
2023/10/08 21:07:20;;;;;;;3.13;2.30;;;;;;;;;;12863564;23;20485;-77
2023/10/08 21:12:24;;;;;;;3.63;2.67;;;;;;;;;;12863558;23;20060;-77
2023/10/08 21:17:28;;;;;;;4.25;2.42;;;;;;;;;;12854670;23;20054;-77
2023/10/08 21:22:31;;;;;;;3.40;2.25;;;;;;;;;;12867004;23;20025;-77
2023/10/08 21:27:37;;;;;;;5.50;2.45;;;;;;;;;;12866515;23;20095;-77
2023/10/08 21:32:42;;;;;;;3.00;2.10;;;;;;;;;;12866204;23;20116;-77
2023/10/08 21:37:47;;;;;;;5.35;2.10;;;;;;;;;;12855803;23;20372;-76
2023/10/08 21:42:52;;;;;;;3.67;2.03;;;;;;;;;;12856402;23;20099;-78
2023/10/08 21:47:56;;;;;;;3.55;2.47;;;;;;;;;;12857111;23;20032;-77
2023/10/08 21:52:59;;;;;;;3.95;2.20;;;;;;;;;;12864355;23;20024;-77
2023/10/08 21:58:04;;;;;;;5.38;2.33;;;;;;;;;;12864096;23;20100;-77
2023/10/08 22:03:09;;;;;;;4.28;2.55;;;;;;;;;;12861862;23;20055;-78
2023/10/08 22:08:15;;;;;;;4.38;2.50;;;;;;;;;;12870552;23;20024;-77
2023/10/08 22:13:20;;;;;;;3.85;2.33;;;;;;;;;;12864875;23;20376;-77
2023/10/08 22:18:27;;;;;;;5.60;2.80;;;;;;;;;;12864443;23;20024;-77
2023/10/08 22:23:34;;;;;;;3.78;1.95;;;;;;;;;;12862734;23;20028;-77
2023/10/08 22:28:42;;;;;;;3.78;2.15;;;;;;;;;;12829590;23;20099;-77
2023/10/08 22:33:48;;;;;;;4.43;2.22;;;;;;;;;;12861530;23;20028;-77
2023/10/08 22:38:53;;;;;;;4.20;2.17;;;;;;;;;;12860650;23;20017;-77
2023/10/08 22:44:00;;;;;;;4.53;2.45;;;;;;;;;;12828841;23;20021;-77
2023/10/08 22:49:16;;;;;;;3.22;2.10;;;;;;;;;;12859795;23;20023;-77
2023/10/08 22:54:20;;;;;;;3.95;2.08;;;;;;;;;;12856078;23;20021;-77
2023/10/08 22:59:24;;;;;;;3.97;2.60;;;;;;;;;;12857149;23;20021;-77
2023/10/08 23:04:28;;;;;;;3.37;2.13;;;;;;;;;;12857725;23;20051;-77
2023/10/08 23:09:32;;;;;;;3.42;2.40;;;;;;;;;;12856825;23;20050;-77
2023/10/08 23:14:38;;;;;;;5.95;2.00;;;;;;;;;;12856899;23;20025;-77
2023/10/08 23:19:41;;;;;;;4.30;2.33;;;;;;;;;;12855975;23;20048;-77
2023/10/08 23:24:44;;;;;;;3.47;2.35;;;;;;;;;;12856494;23;20024;-77
2023/10/08 23:29:51;;;;;;;4.50;1.92;;;;;;;;;;12855974;23;20065;-77
2023/10/08 23:34:59;;;;;;;2.72;1.77;;;;;;;;;;12828632;23;20032;-78
2023/10/08 23:40:12;;;;;;;3.25;1.90;;;;;;;;;;12854308;23;20408;-77
2023/10/08 23:45:18;;;;;;;4.80;2.05;;;;;;;;;;12828129;23;20059;-77
2023/10/08 23:50:30;;;;;;;3.17;2.22;;;;;;;;;;12875613;23;20020;-77
2023/10/08 23:55:34;;;;;;;6.43;2.15;;;;;;;;;;12881081;23;20035;-77
